createdAt,value
2018-07-11T00:01:50.489Z,14.74
2018-07-11T00:06:54.538Z,14.49
2018-07-11T00:11:57.649Z,14.33
2018-07-11T00:17:01.009Z,14.20
2018-07-11T00:22:04.268Z,14.04
2018-07-11T00:27:07.491Z,13.97
2018-07-11T00:32:10.661Z,13.76
2018-07-11T00:37:13.939Z,13.50
2018-07-11T00:42:17.144Z,13.27
2018-07-11T00:47:20.422Z,13.09
2018-07-11T00:52:23.624Z,12.82
2018-07-11T00:57:26.876Z,12.77
2018-07-11T01:02:30.370Z,12.67
2018-07-11T01:07:34.599Z,12.46
2018-07-11T01:12:37.822Z,12.32
2018-07-11T01:17:41.820Z,12.22
2018-07-11T01:22:45.220Z,12.17
2018-07-11T01:27:48.493Z,11.97
2018-07-11T01:32:51.674Z,11.79
2018-07-11T01:37:54.846Z,11.63
2018-07-11T01:42:58.056Z,11.53
2018-07-11T01:48:01.289Z,11.48
2018-07-11T01:53:04.479Z,11.29
2018-07-11T01:58:07.702Z,11.20
2018-07-11T02:03:10.893Z,11.27
2018-07-11T02:08:14.100Z,11.28
2018-07-11T02:13:17.818Z,11.26
2018-07-11T02:18:23.877Z,11.27
2018-07-11T02:23:36.020Z,11.24
2018-07-11T02:28:39.371Z,11.33
2018-07-11T02:33:42.664Z,11.22
2018-07-11T02:38:45.837Z,11.04
2018-07-11T02:43:49.068Z,11.07
2018-07-11T02:48:52.296Z,11.10
2018-07-11T02:53:55.577Z,11.20
2018-07-11T02:58:58.875Z,11.02
2018-07-11T03:04:02.120Z,10.90
2018-07-11T03:09:05.547Z,10.82
2018-07-11T03:14:08.763Z,10.82
2018-07-11T03:19:11.875Z,10.81
2018-07-11T03:24:16.302Z,10.88
2018-07-11T03:29:19.627Z,11.09
2018-07-11T03:34:22.892Z,11.29
2018-07-11T03:39:26.154Z,11.28
2018-07-11T03:44:29.337Z,11.45
2018-07-11T03:49:32.444Z,11.40
2018-07-11T03:54:35.579Z,11.61
2018-07-11T03:59:38.723Z,11.88
2018-07-11T04:04:41.982Z,12.38
2018-07-11T04:09:45.473Z,12.87
2018-07-11T04:14:48.702Z,13.25
2018-07-11T04:19:51.841Z,13.59
2018-07-11T04:24:55.120Z,13.72
2018-07-11T04:29:58.262Z,13.89
2018-07-11T04:35:01.403Z,13.90
2018-07-11T04:40:04.607Z,14.04
2018-07-11T04:45:09.195Z,14.39
2018-07-11T04:50:12.738Z,15.35
2018-07-11T04:55:16.087Z,16.03
2018-07-11T05:00:19.352Z,16.41
2018-07-11T05:05:25.428Z,16.68
2018-07-11T05:10:28.579Z,16.76
2018-07-11T05:15:31.748Z,16.67
2018-07-11T05:20:34.890Z,16.37
2018-07-11T05:25:38.073Z,16.54
2018-07-11T05:30:41.226Z,16.98
2018-07-11T05:35:44.434Z,17.50
2018-07-11T05:40:49.851Z,18.05
2018-07-11T05:45:53.583Z,18.81
2018-07-11T05:50:56.713Z,22.86
2018-07-11T05:55:59.861Z,29.66
2018-07-11T06:01:03.054Z,32.35
2018-07-11T06:06:06.424Z,32.40
2018-07-11T06:11:15.935Z,33.02
2018-07-11T06:16:19.157Z,32.74
2018-07-11T06:21:23.305Z,31.42
2018-07-11T06:26:26.449Z,29.55
2018-07-11T06:31:29.559Z,28.12
2018-07-11T06:36:32.695Z,29.44
2018-07-11T06:41:35.895Z,30.52
2018-07-11T06:46:39.063Z,27.80
2018-07-11T06:51:42.241Z,27.31
2018-07-11T06:56:45.485Z,27.35
2018-07-11T07:01:48.759Z,32.61
2018-07-11T07:06:51.950Z,31.50
2018-07-11T07:11:55.165Z,32.00
2018-07-11T07:16:58.301Z,30.29
2018-07-11T07:22:02.283Z,31.34
2018-07-11T07:27:05.451Z,27.92
2018-07-11T07:32:08.629Z,27.07
2018-07-11T07:37:11.824Z,25.55
2018-07-11T07:42:15.488Z,24.23
2018-07-11T07:47:19.300Z,26.10
2018-07-11T07:52:22.602Z,25.54
2018-07-11T07:57:26.763Z,23.59
2018-07-11T08:02:29.965Z,23.15
2018-07-11T08:07:33.575Z,22.77
2018-07-11T08:12:36.921Z,21.48
2018-07-11T08:17:40.049Z,21.07
2018-07-11T08:23:19.596Z,21.05
2018-07-11T08:29:31.691Z,21.51
2018-07-11T08:35:22.470Z,21.76
2018-07-11T08:40:41.567Z,22.68
2018-07-11T08:48:02.782Z,22.96
2018-07-11T08:53:40.595Z,23.18
2018-07-11T08:59:08.612Z,23.21
2018-07-11T09:04:22.658Z,23.09
2018-07-11T09:11:41.550Z,22.84
2018-07-11T09:17:02.779Z,23.11
2018-07-11T09:23:33.860Z,23.52
2018-07-11T09:28:37.049Z,25.14
2018-07-11T09:33:40.249Z,24.93
2018-07-11T09:38:43.389Z,24.85
2018-07-11T09:43:46.592Z,24.85
2018-07-11T09:48:49.860Z,25.53
2018-07-11T09:53:53.077Z,24.41
2018-07-11T09:58:57.561Z,25.12
2018-07-11T10:04:01.583Z,25.58
2018-07-11T10:09:04.799Z,25.73
2018-07-11T10:14:08.094Z,25.58
2018-07-11T10:19:11.214Z,26.27
2018-07-11T10:24:15.386Z,28.70
2018-07-11T10:29:18.642Z,28.73
2018-07-11T10:34:21.846Z,28.95
2018-07-11T10:39:24.980Z,29.51
2018-07-11T10:44:28.148Z,28.85
2018-07-11T10:49:31.398Z,28.12
2018-07-11T10:54:34.531Z,28.00
2018-07-11T10:59:37.939Z,26.59
2018-07-11T11:04:41.087Z,27.78
2018-07-11T11:09:44.716Z,27.83
2018-07-11T11:14:48.044Z,27.52
2018-07-11T11:19:51.180Z,28.96
2018-07-11T11:24:54.375Z,27.10
2018-07-11T11:29:57.486Z,28.44
2018-07-11T11:35:00.738Z,27.87
2018-07-11T11:40:03.945Z,25.28
2018-07-11T11:45:07.152Z,23.97
2018-07-11T11:50:10.401Z,24.72
2018-07-11T11:55:13.520Z,24.13
2018-07-11T12:00:16.739Z,24.44
2018-07-11T12:05:20.017Z,25.24
2018-07-11T12:10:23.206Z,25.08
2018-07-11T12:15:26.305Z,25.15
2018-07-11T12:20:29.489Z,24.10
2018-07-11T12:25:32.800Z,23.70
2018-07-11T12:30:35.951Z,24.23
2018-07-11T12:35:39.161Z,24.45
2018-07-11T12:40:44.634Z,24.73
2018-07-11T12:45:47.840Z,24.09
2018-07-11T12:50:51.118Z,22.68
2018-07-11T12:55:54.390Z,22.39
2018-07-11T13:00:57.598Z,21.32
2018-07-11T13:06:01.254Z,21.39
2018-07-11T13:11:04.438Z,21.68
2018-07-11T13:16:07.681Z,22.15
2018-07-11T13:21:10.768Z,22.32
2018-07-11T13:26:14.040Z,24.13
2018-07-11T13:31:17.346Z,25.03
2018-07-11T13:36:20.595Z,25.19
2018-07-11T13:41:23.825Z,25.98
2018-07-11T13:46:27.241Z,27.12
2018-07-11T13:51:30.371Z,28.13
2018-07-11T13:56:33.540Z,28.48
2018-07-11T14:01:36.872Z,28.69
2018-07-11T14:06:40.145Z,28.73
2018-07-11T14:11:43.440Z,28.99
2018-07-11T14:16:47.065Z,29.62
2018-07-11T14:21:51.037Z,30.03
2018-07-11T14:26:54.491Z,29.60
2018-07-11T14:31:58.424Z,30.05
2018-07-11T14:37:02.481Z,29.54
2018-07-11T14:42:05.698Z,30.11
2018-07-11T14:47:09.281Z,29.94
2018-07-11T14:52:12.672Z,29.78
2018-07-11T14:57:16.064Z,27.70
2018-07-11T15:02:19.315Z,26.99
2018-07-11T15:07:22.526Z,25.81
2018-07-11T15:12:25.744Z,24.89
2018-07-11T15:17:29.900Z,23.94
2018-07-11T15:22:33.104Z,23.64
2018-07-11T15:27:36.449Z,24.44
2018-07-11T15:32:40.287Z,23.56
2018-07-11T15:37:43.483Z,22.64
2018-07-11T15:42:48.116Z,23.12
2018-07-11T15:47:51.764Z,23.52
2018-07-11T15:52:54.941Z,23.54
2018-07-11T15:58:02.723Z,23.24
2018-07-11T16:03:06.229Z,23.39
2018-07-11T16:08:09.444Z,23.56
2018-07-11T16:13:12.675Z,24.04
2018-07-11T16:18:15.895Z,25.29
2018-07-11T16:23:19.129Z,25.58
2018-07-11T16:28:22.417Z,24.46
2018-07-11T16:33:26.066Z,24.87
2018-07-11T16:38:30.137Z,24.68
2018-07-11T16:43:33.390Z,23.30
2018-07-11T16:48:36.506Z,23.01
2018-07-11T16:53:39.749Z,22.90
2018-07-11T16:58:47.701Z,23.02
2018-07-11T17:03:50.954Z,22.88
2018-07-11T17:08:54.602Z,22.16
2018-07-11T17:13:57.783Z,22.07
2018-07-11T17:19:03.991Z,22.06
2018-07-11T17:24:07.373Z,21.50
2018-07-11T17:29:22.268Z,21.15
2018-07-11T17:34:25.561Z,21.54
2018-07-11T17:39:43.813Z,21.88
2018-07-11T17:44:47.682Z,22.51
2018-07-11T17:49:56.098Z,23.11
2018-07-11T17:55:04.895Z,23.61
2018-07-11T18:00:08.016Z,24.18
2018-07-11T18:05:22.105Z,24.43
2018-07-11T18:10:41.624Z,24.21
2018-07-11T18:16:49.298Z,23.96
2018-07-11T18:26:10.197Z,24.31
2018-07-11T18:32:25.285Z,23.56
2018-07-11T18:38:12.569Z,23.50
2018-07-11T18:45:46.575Z,23.06
2018-07-11T18:51:02.932Z,22.51
2018-07-11T18:56:12.890Z,22.25
2018-07-11T19:01:32.497Z,21.25
2018-07-11T19:06:47.772Z,20.92
2018-07-11T19:11:53.925Z,20.64
2018-07-11T19:17:06.150Z,20.58
2018-07-11T19:24:29.054Z,20.58
2018-07-11T19:30:43.243Z,20.29
2018-07-11T19:36:11.180Z,19.91
2018-07-11T19:41:17.454Z,19.29
2018-07-11T19:48:32.627Z,18.64
2018-07-11T19:53:52.318Z,17.87
2018-07-11T19:58:59.369Z,17.57
2018-07-11T20:04:03.937Z,17.33
2018-07-11T20:09:08.671Z,17.21
2018-07-11T20:14:12.674Z,17.17
2018-07-11T20:19:16.203Z,17.15
2018-07-11T20:24:19.861Z,17.16
2018-07-11T20:29:23.398Z,16.98
2018-07-11T20:34:26.649Z,16.52
2018-07-11T20:39:29.857Z,16.27
2018-07-11T20:44:33.492Z,16.41
2018-07-11T20:49:36.614Z,16.27
2018-07-11T20:54:39.884Z,16.21
2018-07-11T20:59:54.139Z,16.20
2018-07-11T21:09:17.444Z,16.31
2018-07-11T21:16:33.748Z,16.35
2018-07-11T21:21:37.036Z,16.40
2018-07-11T21:26:40.199Z,16.24
2018-07-11T21:31:43.341Z,15.97
2018-07-11T21:36:46.493Z,15.87
2018-07-11T21:41:49.645Z,15.92
2018-07-11T21:46:53.138Z,16.00
2018-07-11T21:51:56.418Z,15.84
2018-07-11T21:56:59.492Z,15.79
2018-07-11T22:02:02.657Z,15.87
2018-07-11T22:07:05.795Z,15.93
2018-07-11T22:12:09.033Z,15.95
2018-07-11T22:17:23.607Z,15.91
2018-07-11T22:22:25.565Z,15.69
2018-07-11T22:27:27.529Z,15.51
2018-07-11T22:32:29.500Z,15.69
2018-07-11T22:37:31.438Z,15.69
2018-07-11T22:42:33.484Z,15.68
2018-07-11T22:47:35.416Z,15.74
2018-07-11T22:52:37.418Z,15.78
2018-07-11T22:57:39.281Z,15.69
2018-07-11T23:02:41.260Z,15.61
2018-07-11T23:07:43.162Z,15.54
2018-07-11T23:12:45.139Z,15.57
2018-07-11T23:17:47.109Z,15.53
2018-07-11T23:22:49.041Z,15.54
2018-07-11T23:27:51.203Z,15.61
2018-07-11T23:32:53.110Z,15.64
2018-07-11T23:37:55.069Z,15.73
2018-07-11T23:42:57.027Z,15.79
2018-07-11T23:47:59.007Z,15.79
2018-07-11T23:53:00.950Z,15.75
2018-07-11T23:58:02.889Z,15.72
